Friday, January 19, 2018, 7:23 AM GMT
Back to Local

CYPD, Port Hawkesbury

Location: , , Canada Lat: 45.667
Local Time: 7:23 AM GMT ( 7:23 GMT) Lon: -61.383
Time Zone: GMT Elev: 374 ft

Show me the last for .
Show Coded

Time T Td Feel RH Dir Speed Gust Alt SLP Vis Weather Sky Remarks
2018-01-19 07:00 21 18 - 85 Variable 2 - 29.71 29.73 9 OVC022 None
2018-01-19 06:00 23 18 18 79 340° 3 - 29.71 29.73 9 OVC020 None
2018-01-19 05:00 23 18 17 79 330° 5 - 29.69 29.72 9 OVC016 None
2018-01-19 04:32 23 19 15 85 340° 7 - 29.70 29.72 9 OVC016 Pressure falling rapidly
2018-01-19 04:22 23 18 14 79 350° 8 - 29.72 29.74 9 -SN OVC016 None
2018-01-19 04:00 23 19 14 85 350° 8 - 29.72 29.74 9 OVC018 None
2018-01-19 03:26 23 19 15 85 330° 7 - 29.74 29.76 9 OVC018 None
2018-01-19 03:13 23 19 14 85 320° 8 - 29.74 29.76 9 -SN OVC016 None
2018-01-19 03:00 25 19 18 79 330° 6 - 29.74 29.76 9 OVC016 None
2018-01-19 02:00 25 21 17 85 320° 7 - 29.72 29.74 9 OVC022 None
2018-01-19 01:00 27 23 17 86 320° 9 - 29.74 29.76 9 FEW005 SCT013 OVC020 None
2018-01-19 00:57 27 23 18 86 310° 8 - 29.74 29.76 9 SCT005 SCT013 OVC020 None
2018-01-19 00:51 27 25 17 92 300° 10 - 29.74 29.76 9 -SN FEW005 SCT009 BKN013 OVC020 None
2018-01-19 00:38 27 25 21 92 300° 5 - 29.73 29.75 8 -SN BKN009 BKN013 OVC019 None
2018-01-19 00:37 27 25 23 92 300° 3 - 29.73 29.75 9 -SN SCT009 OVC013 None
2018-01-19 00:33 27 25 23 92 270° 3 - 29.73 29.75 9 -SN BKN009 BKN013 OVC018 None
2018-01-19 00:11 27 25 23 92 310° 3 - 29.73 29.75 9 BKN005 OVC011 None
2018-01-19 00:10 27 25 21 92 300° 5 - 29.73 29.75 9 SCT005 OVC011 None
2018-01-19 00:00 27 25 19 92 300° 7 - 29.73 29.75 9 BKN005 OVC011 None
2018-01-18 23:42 27 25 21 92 290° 5 - 29.72 29.74 6 BR OVC003 None
2018-01-18 23:18 25 25 19 100 310° 5 - 29.71 29.73 3 BR OVC003 None
2018-01-18 23:01 25 25 19 100 320° 5 - 29.72 29.74 2 BR OVC003 None
2018-01-18 23:00 25 25 19 100 320° 5 - 29.71 29.73 3 BR OVC003 None
2018-01-18 22:55 25 25 17 100 320° 7 - 29.71 29.73 5 BR OVC003 None
2018-01-18 22:47 25 25 18 100 300° 6 - 29.72 29.74 6 BR OVC003 None
2018-01-18 22:41 25 25 18 100 320° 6 - 29.72 29.74 3 BR OVC003 None
2018-01-18 22:06 25 25 15 100 330° 10 - 29.71 29.73 2 BR OVC003 None
2018-01-18 22:00 25 25 15 100 320° 10 - 29.71 29.73 4 BR OVC003 None
2018-01-18 21:56 25 25 18 100 330° 6 - 29.72 29.74 5 BR OVC003 None
2018-01-18 21:00 27 25 21 92 330° 5 - 29.69 29.72 9 OVC005 None
2018-01-18 20:00 27 27 21 100 310° 5 - 29.72 29.74 9 OVC005 None
2018-01-18 19:00 27 27 18 100 320° 8 - 29.72 29.74 9 OVC005 None
2018-01-18 18:00 28 25 20 86 310° 9 - 29.72 29.74 9 OVC005 None
2018-01-18 17:00 28 27 16 92 310° 10 17 29.72 29.75 9 BKN003 OVC015 None
2018-01-18 16:22 28 27 15 92 300° 14 20 29.74 29.76 9 OVC003 None
2018-01-18 16:17 28 27 15 92 300° 14 20 29.74 29.76 6 -SN OVC003 None
2018-01-18 16:00 28 27 16 92 290° 13 18 29.75 29.77 4 -SN OVC003 None
2018-01-18 15:54 28 27 15 92 290° 12 21 29.75 29.77 4 -SN OVC003 None
2018-01-18 15:43 28 27 15 92 290° 13 21 29.76 29.78 3 BR OVC003 None
2018-01-18 15:33 28 27 14 92 290° 14 23 29.76 29.78 2 BR OVC003 None
2018-01-18 15:32 28 27 14 92 290° 13 23 29.76 29.78 3 BR OVC003 None
2018-01-18 15:22 28 27 15 92 290° 12 22 29.77 29.79 6 BR OVC003 None
2018-01-18 15:00 28 27 16 92 290° 12 18 29.76 29.78 4 BR OVC003 None
2018-01-18 14:19 28 27 16 92 310° 10 17 29.76 29.78 5 BR OVC003 None
2018-01-18 14:10 28 27 14 92 300° 15 23 29.76 29.78 6 BR OVC003 None
2018-01-18 14:00 28 27 15 92 310° 12 20 29.76 29.78 3 BR OVC003 None
2018-01-18 13:36 28 27 19 92 300° 10 - 29.76 29.78 5 BR OVC003 None
2018-01-18 13:10 28 27 16 92 310° 10 18 29.75 29.77 6 BR OVC003 None
2018-01-18 13:00 28 27 15 92 310° 13 21 29.75 29.77 3 BR OVC003 None
2018-01-18 12:54 28 27 15 92 310° 14 20 29.75 29.77 2 BR OVC003 None
2018-01-18 12:34 28 27 18 92 310° 12 - 29.74 29.76 3 BR OVC006 None
2018-01-18 12:19 28 27 20 92 300° 9 - 29.74 29.76 2 BR OVC006 None
2018-01-18 12:00 28 28 20 100 300° 9 - 29.73 29.75 4 BR OVC006 None
2018-01-18 11:50 28 27 20 92 310° 8 - 29.72 29.74 4 BR OVC004 None
2018-01-18 11:41 28 27 22 92 310° 6 - 29.72 29.74 3 BR OVC004 None
2018-01-18 11:31 28 27 16 92 300° 7 17 29.72 29.74 1 BR BKN002 OVC006 None
2018-01-18 11:25 28 27 16 92 310° 12 17 29.72 29.74 1 -FZRA BR OVC002 None
2018-01-18 11:17 28 27 18 92 300° 13 - 29.72 29.74 1 -FZRA -SN BKN002 OVC016 None
2018-01-18 11:09 28 28 19 100 300° 10 - 29.72 29.74 1 -SN BKN002 OVC016 None
2018-01-18 11:03 28 28 18 100 300° 12 - 29.72 29.75 1 -SN FEW002 OVC016 None
2018-01-18 11:00 28 28 20 100 300° 9 - 29.72 29.75 1 -SN FEW004 OVC016 None
2018-01-18 10:56 28 27 23 92 300° 5 - 29.72 29.74 2 BR FEW004 OVC018 None
2018-01-18 10:44 28 28 - 100 Variable 2 - 29.72 29.74 3 BR SCT004 OVC018 None
2018-01-18 10:43 28 28 - 100 Variable 2 - 29.72 29.74 3 BR BKN004 OVC018 None
2018-01-18 10:42 28 28 - 100 - Calm - 29.72 29.74 2 BR BKN004 OVC018 None
2018-01-18 10:24 28 28 22 100 340° 6 - 29.72 29.75 1 BR OVC004 None
2018-01-18 10:06 28 27 22 92 340° 6 - 29.72 29.74 1 -FZRA BR OVC004 None
2018-01-18 10:00 28 27 21 92 330° 7 - 29.72 29.74 1 -FZRA -SN OVC004 None
2018-01-18 09:55 28 27 20 92 310° 8 - 29.72 29.75 1 -SN OVC002 None
2018-01-18 09:40 28 27 20 92 310° 8 - 29.72 29.74 1 BR OVC002 Pressure rising rapidly
2018-01-18 09:35 28 27 21 92 320° 7 - 29.71 29.73 1 BR OVC002 None
2018-01-18 09:00 28 27 23 92 10° 5 - 29.72 29.74 1 -FZRA BR OVC002 None
2018-01-18 08:14 28 27 16 92 40° 9 17 29.72 29.75 1 -FZRA BR OVC002 None
2018-01-18 08:08 28 27 16 92 40° 10 17 29.72 29.75 1 -FZRA -SN OVC002 None
2018-01-18 08:04 28 27 18 92 40° 13 - 29.72 29.75 2 -SN OVC002 None
2018-01-18 08:00 28 27 16 92 50° 12 17 29.72 29.74 2 BR OVC002 None
2018-01-18 07:50 28 27 18 92 40° 13 - 29.73 29.75 2 BR OVC002 None
2018-01-18 07:34 28 27 16 92 60° 12 18 29.73 29.75 2 -FZRA BR OVC004 Pressure falling rapidly
2018-01-18 07:28 28 27 17 92 60° 15 - 29.73 29.75 2 -FZRA -SN OVC004 Pressure falling rapidly
2018-01-18 07:27 28 27 17 92 60° 15 - 29.74 29.76 2 -SN OVC004 Pressure falling rapidly
2018-01-18 07:25 28 27 17 92 60° 16 - 29.74 29.76 3 -SN OVC004 Pressure falling rapidly

Support USWX by starting your Amazon purchase here.